Time;durP1;ratioP1;P1;durP2;ratioP2;P2;SDS_P1;SDS_P2;PMS_P1;PMS_P2;Temp;Humidity;BMP_temperature;BMP_pressure;BME280_temperature;BME280_humidity;BME280_pressure;Samples;Min_cycle;Max_cycle;Signal;HPM_P1;HPM_P2
2022/06/06 00:00:03;;;;;;;19.17;17.27;;;;;;;;;;2057593;28;20174;-51
2022/06/06 00:01:20;;;;;;;17.48;15.77;;;;;;;;;;2057871;28;20174;-55
2022/06/06 00:02:20;;;;;;;17.92;16.17;;;;;;;;;;2063391;28;20193;-51
2022/06/06 00:03:21;;;;;;;18.35;16.55;;;;;;;;;;2066385;28;20197;-54
2022/06/06 00:04:23;;;;;;;17.10;15.27;;;;;;;;;;2065068;28;20317;-55
2022/06/06 00:05:23;;;;;;;18.00;16.20;;;;;;;;;;2065579;28;20182;-57
2022/06/06 00:06:24;;;;;;;17.42;15.68;;;;;;;;;;2065311;28;20256;-51
2022/06/06 00:07:25;;;;;;;17.40;15.60;;;;;;;;;;2065799;28;20694;-52
2022/06/06 00:08:26;;;;;;;17.17;15.43;;;;;;;;;;2065899;28;20182;-54
2022/06/06 00:09:26;;;;;;;16.83;15.23;;;;;;;;;;2065645;28;20614;-54
2022/06/06 00:10:27;;;;;;;17.17;15.57;;;;;;;;;;2065610;28;20640;-50
2022/06/06 00:11:30;;;;;;;13.88;12.35;;;;;;;;;;2066224;28;20181;-55
2022/06/06 00:12:31;;;;;;;15.60;14.07;;;;;;;;;;2065934;28;20197;-50
2022/06/06 00:13:31;;;;;;;16.75;15.15;;;;;;;;;;2065984;28;20189;-48
2022/06/06 00:14:32;;;;;;;16.13;14.52;;;;;;;;;;2065185;28;20212;-54
2022/06/06 00:15:34;;;;;;;16.55;15.02;;;;;;;;;;2066025;28;20273;-54
2022/06/06 00:16:35;;;;;;;16.42;14.75;;;;;;;;;;2065996;28;20240;-55
2022/06/06 00:17:37;;;;;;;16.45;14.75;;;;;;;;;;2066132;28;20224;-56
2022/06/06 00:18:37;;;;;;;17.40;15.68;;;;;;;;;;2066108;28;20180;-51
2022/06/06 00:19:37;;;;;;;15.88;14.23;;;;;;;;;;2065903;28;20553;-53
2022/06/06 00:20:38;;;;;;;17.38;15.07;;;;;;;;;;2067411;28;20657;-56
2022/06/06 00:21:39;;;;;;;18.40;16.55;;;;;;;;;;2074123;28;20641;-53
2022/06/06 00:22:39;;;;;;;19.50;17.48;;;;;;;;;;2067999;28;20225;-55
2022/06/06 00:23:40;;;;;;;17.92;16.02;;;;;;;;;;2065688;28;20174;-51
2022/06/06 00:24:40;;;;;;;18.23;16.25;;;;;;;;;;2065293;28;20586;-56
2022/06/06 00:25:40;;;;;;;19.50;17.48;;;;;;;;;;2065940;28;20188;-57
2022/06/06 00:26:42;;;;;;;21.90;19.63;;;;;;;;;;2066124;28;20173;-54
2022/06/06 00:27:42;;;;;;;22.13;19.92;;;;;;;;;;2065248;28;20196;-54
2022/06/06 00:28:44;;;;;;;21.35;18.77;;;;;;;;;;2065710;28;20249;-59
2022/06/06 00:29:45;;;;;;;21.95;19.35;;;;;;;;;;2066198;28;20224;-58
2022/06/06 00:30:45;;;;;;;23.77;20.65;;;;;;;;;;2066719;28;20176;-56
2022/06/06 00:35:42;;;;;;;25.20;22.50;;;;;;;;;;2057862;28;20194;-53
2022/06/06 00:36:43;;;;;;;26.25;23.00;;;;;;;;;;2058022;28;20527;-47
2022/06/06 00:37:43;;;;;;;23.55;19.88;;;;;;;;;;2057836;28;20206;-55
2022/06/06 00:38:43;;;;;;;27.33;23.75;;;;;;;;;;2065556;28;20173;-48
2022/06/06 00:39:44;;;;;;;29.35;24.50;;;;;;;;;;2065721;28;20173;-56
2022/06/06 00:40:47;;;;;;;29.02;25.17;;;;;;;;;;2066053;28;20353;-51
2022/06/06 00:41:49;;;;;;;28.95;24.58;;;;;;;;;;2065949;28;20174;-52
2022/06/06 00:42:49;;;;;;;27.77;24.15;;;;;;;;;;2065660;28;20209;-51
2022/06/06 00:44:05;;;;;;;29.88;24.42;;;;;;;;;;2065903;28;20166;-53
2022/06/06 00:45:21;;;;;;;29.73;24.00;;;;;;;;;;2065841;28;20236;-52
2022/06/06 00:46:21;;;;;;;28.33;23.25;;;;;;;;;;2065921;28;20173;-53
2022/06/06 00:47:28;;;;;;;33.35;26.65;;;;;;;;;;2065974;28;20165;-53
2022/06/06 00:48:38;;;;;;;32.95;25.52;;;;;;;;;;2065490;28;20182;-57
2022/06/06 00:49:42;;;;;;;30.83;23.88;;;;;;;;;;2065714;28;20165;-57
2022/06/06 00:50:54;;;;;;;32.13;25.08;;;;;;;;;;2065721;28;20178;-56
2022/06/06 00:51:56;;;;;;;31.08;25.45;;;;;;;;;;2065669;28;20574;-56
2022/06/06 00:52:59;;;;;;;26.55;22.90;;;;;;;;;;2065395;28;20193;-54
2022/06/06 00:53:59;;;;;;;28.90;22.70;;;;;;;;;;2064911;28;20181;-50
2022/06/06 00:55:01;;;;;;;31.25;25.35;;;;;;;;;;2065382;28;20161;-53
2022/06/06 00:56:06;;;;;;;29.80;21.55;;;;;;;;;;2065638;28;20197;-51
2022/06/06 00:57:09;;;;;;;28.05;23.52;;;;;;;;;;2065911;28;20239;-56
2022/06/06 00:58:12;;;;;;;23.15;19.73;;;;;;;;;;2065396;28;20558;-51
2022/06/06 00:59:14;;;;;;;29.10;22.23;;;;;;;;;;2064954;28;20667;-56
2022/06/06 01:00:17;;;;;;;25.48;20.02;;;;;;;;;;2065106;28;20185;-52
2022/06/06 01:01:17;;;;;;;26.42;20.33;;;;;;;;;;2065772;28;20158;-53
2022/06/06 01:02:18;;;;;;;22.40;16.13;;;;;;;;;;2065296;28;20170;-53
2022/06/06 01:03:19;;;;;;;21.83;16.55;;;;;;;;;;2064837;28;20181;-53
2022/06/06 01:04:21;;;;;;;22.27;17.83;;;;;;;;;;2064359;28;20678;-52
2022/06/06 01:05:22;;;;;;;21.75;17.08;;;;;;;;;;2064984;28;20197;-52
2022/06/06 01:06:24;;;;;;;23.80;19.77;;;;;;;;;;2065829;28;20221;-55
2022/06/06 01:07:25;;;;;;;22.23;18.08;;;;;;;;;;2065575;28;20279;-55
2022/06/06 01:08:25;;;;;;;22.45;18.65;;;;;;;;;;2065839;28;20189;-54
2022/06/06 01:09:26;;;;;;;23.50;17.63;;;;;;;;;;2065639;28;20201;-52
2022/06/06 01:10:26;;;;;;;29.60;22.92;;;;;;;;;;2065804;28;20541;-56
2022/06/06 01:11:27;;;;;;;27.92;21.15;;;;;;;;;;2065612;28;20170;-55
2022/06/06 01:12:29;;;;;;;24.70;20.20;;;;;;;;;;2090867;23;20723;-53
2022/06/06 01:13:31;;;;;;;31.52;22.73;;;;;;;;;;2077370;28;20196;-54
2022/06/06 01:14:39;;;;;;;25.92;22.25;;;;;;;;;;2081993;28;20363;-53
2022/06/06 01:15:49;;;;;;;26.90;22.50;;;;;;;;;;2083227;28;20188;-58
2022/06/06 01:16:53;;;;;;;26.95;22.55;;;;;;;;;;2075103;28;20165;-52
2022/06/06 01:18:21;;;;;;;31.50;23.77;;;;;;;;;;2082610;28;20242;-52
2022/06/06 01:19:44;;;;;;;29.27;22.55;;;;;;;;;;2083600;28;20172;-55
2022/06/06 01:20:44;;;;;;;29.95;24.35;;;;;;;;;;2084000;28;20251;-52
2022/06/06 01:21:56;;;;;;;26.35;23.08;;;;;;;;;;2081753;28;20179;-53
2022/06/06 01:23:03;;;;;;;34.33;26.27;;;;;;;;;;2078612;28;20212;-56
2022/06/06 01:24:22;;;;;;;30.92;24.85;;;;;;;;;;2083085;28;20168;-55
2022/06/06 01:25:23;;;;;;;32.65;26.00;;;;;;;;;;2084203;28;20252;-57
2022/06/06 01:26:41;;;;;;;32.47;24.05;;;;;;;;;;2083856;28;20562;-52
2022/06/06 01:27:44;;;;;;;30.73;24.42;;;;;;;;;;2084252;28;20176;-55
2022/06/06 01:29:03;;;;;;;29.10;23.33;;;;;;;;;;2083344;28;20645;-56
2022/06/06 01:30:21;;;;;;;32.67;23.85;;;;;;;;;;2084932;28;20171;-54
2022/06/06 01:31:27;;;;;;;30.13;23.05;;;;;;;;;;2085838;28;20176;-53
2022/06/06 01:32:29;;;;;;;34.65;24.40;;;;;;;;;;2086738;28;20188;-53
2022/06/06 01:33:29;;;;;;;31.65;24.40;;;;;;;;;;2085285;28;20172;-52
2022/06/06 01:34:31;;;;;;;33.47;24.40;;;;;;;;;;2085969;28;20263;-52
2022/06/06 01:35:33;;;;;;;37.78;26.10;;;;;;;;;;2084894;28;20196;-52
2022/06/06 01:36:34;;;;;;;38.15;26.85;;;;;;;;;;2085856;28;20180;-56
2022/06/06 01:37:36;;;;;;;34.95;24.63;;;;;;;;;;2085689;28;20218;-53
2022/06/06 01:38:38;;;;;;;37.20;27.75;;;;;;;;;;2085577;28;20173;-53
2022/06/06 01:39:38;;;;;;;36.90;28.52;;;;;;;;;;2084571;28;20165;-53
2022/06/06 01:40:38;;;;;;;43.53;29.42;;;;;;;;;;2084197;28;20606;-52
2022/06/06 01:41:53;;;;;;;40.78;28.80;;;;;;;;;;2084517;28;20172;-51
2022/06/06 01:42:58;;;;;;;41.00;29.38;;;;;;;;;;2084793;28;20215;-51
2022/06/06 01:44:06;;;;;;;42.80;27.80;;;;;;;;;;2083747;28;20180;-57
2022/06/06 01:45:17;;;;;;;38.95;28.38;;;;;;;;;;2083978;28;20276;-56
2022/06/06 01:46:22;;;;;;;40.63;29.23;;;;;;;;;;2085097;28;20179;-52
2022/06/06 01:47:27;;;;;;;43.47;30.13;;;;;;;;;;2085544;28;20196;-56
2022/06/06 01:48:32;;;;;;;46.92;30.88;;;;;;;;;;2077006;28;20185;-56
2022/06/06 01:49:33;;;;;;;43.10;30.25;;;;;;;;;;2077371;28;20180;-56
2022/06/06 01:50:35;;;;;;;43.20;32.15;;;;;;;;;;2084766;28;20241;-53
2022/06/06 01:51:36;;;;;;;43.55;30.00;;;;;;;;;;2084292;28;20179;-53
2022/06/06 01:52:49;;;;;;;45.67;30.80;;;;;;;;;;2083156;28;20727;-56
2022/06/06 01:53:49;;;;;;;45.83;32.05;;;;;;;;;;2085351;28;20248;-54
2022/06/06 01:54:57;;;;;;;46.85;31.88;;;;;;;;;;2084523;28;20171;-54
2022/06/06 01:55:57;;;;;;;46.47;30.90;;;;;;;;;;2085598;28;20187;-51
2022/06/06 01:56:59;;;;;;;47.28;33.05;;;;;;;;;;2086038;28;20211;-54
2022/06/06 01:58:01;;;;;;;54.20;32.38;;;;;;;;;;2085871;28;20168;-55
2022/06/06 01:59:02;;;;;;;52.38;32.70;;;;;;;;;;2086097;28;20160;-52
2022/06/06 02:00:04;;;;;;;48.75;31.05;;;;;;;;;;2085413;28;20187;-52
2022/06/06 02:01:05;;;;;;;47.13;31.52;;;;;;;;;;2085858;28;20175;-56
2022/06/06 02:02:05;;;;;;;45.38;32.38;;;;;;;;;;2085316;28;20263;-54
2022/06/06 02:03:06;;;;;;;48.35;32.83;;;;;;;;;;2085318;28;20192;-54
2022/06/06 02:04:07;;;;;;;49.28;32.70;;;;;;;;;;2083724;28;20172;-55
2022/06/06 02:05:07;;;;;;;41.60;27.33;;;;;;;;;;2084456;28;20204;-51
2022/06/06 02:06:08;;;;;;;45.70;28.45;;;;;;;;;;2084871;28;20222;-52
2022/06/06 02:07:08;;;;;;;51.47;32.00;;;;;;;;;;2084873;28;20181;-55
2022/06/06 02:08:09;;;;;;;45.92;29.80;;;;;;;;;;2085030;28;20228;-53
2022/06/06 02:09:09;;;;;;;50.00;31.77;;;;;;;;;;2085433;28;20165;-54
2022/06/06 02:10:11;;;;;;;43.80;28.48;;;;;;;;;;2085377;28;20180;-54
2022/06/06 02:11:11;;;;;;;40.55;27.65;;;;;;;;;;2085496;28;20207;-52
2022/06/06 02:12:12;;;;;;;52.28;31.33;;;;;;;;;;2084982;28;20176;-52
2022/06/06 02:13:12;;;;;;;46.13;32.58;;;;;;;;;;2085562;28;20708;-53
2022/06/06 02:14:13;;;;;;;47.30;28.63;;;;;;;;;;2084076;28;20187;-55
2022/06/06 02:15:15;;;;;;;55.45;33.35;;;;;;;;;;2085052;28;20615;-53
2022/06/06 02:16:16;;;;;;;47.67;31.85;;;;;;;;;;2085510;28;20179;-56
2022/06/06 02:17:16;;;;;;;49.90;32.10;;;;;;;;;;2085958;28;20196;-52
2022/06/06 02:18:16;;;;;;;48.17;28.63;;;;;;;;;;2086570;28;20164;-52
2022/06/06 02:19:17;;;;;;;53.10;31.35;;;;;;;;;;2086008;28;20168;-54
2022/06/06 02:20:18;;;;;;;53.33;35.45;;;;;;;;;;2085529;28;20187;-54
2022/06/06 02:21:18;;;;;;;50.75;34.00;;;;;;;;;;2085594;28;20183;-54
2022/06/06 02:22:19;;;;;;;55.08;34.17;;;;;;;;;;2086412;28;20169;-56
2022/06/06 02:23:19;;;;;;;49.58;32.33;;;;;;;;;;2084894;28;20188;-52
2022/06/06 02:24:19;;;;;;;47.40;29.75;;;;;;;;;;2084485;28;20207;-53
2022/06/06 02:25:21;;;;;;;48.63;29.63;;;;;;;;;;2085683;28;20164;-53
2022/06/06 02:26:22;;;;;;;54.00;35.55;;;;;;;;;;2085502;28;20172;-52
2022/06/06 02:27:23;;;;;;;50.80;29.38;;;;;;;;;;2084366;28;20168;-54
2022/06/06 02:28:24;;;;;;;56.47;30.05;;;;;;;;;;2083900;28;20172;-52
2022/06/06 02:29:24;;;;;;;51.33;28.15;;;;;;;;;;2084055;28;20656;-52
2022/06/06 02:30:26;;;;;;;48.05;30.50;;;;;;;;;;2083397;28;20250;-55
2022/06/06 02:31:27;;;;;;;55.20;33.72;;;;;;;;;;2083158;28;20715;-54
2022/06/06 02:32:27;;;;;;;56.10;33.85;;;;;;;;;;2082746;28;20172;-55
2022/06/06 02:33:27;;;;;;;52.45;33.65;;;;;;;;;;2082827;28;20164;-54
2022/06/06 02:34:29;;;;;;;57.70;34.25;;;;;;;;;;2081774;28;20192;-55
2022/06/06 02:35:30;;;;;;;55.05;33.25;;;;;;;;;;2083035;28;20168;-55
2022/06/06 02:36:31;;;;;;;54.22;29.67;;;;;;;;;;2082031;28;20184;-54
2022/06/06 02:37:31;;;;;;;41.53;23.67;;;;;;;;;;2083574;28;20222;-54
2022/06/06 02:38:32;;;;;;;46.00;31.77;;;;;;;;;;2083568;28;20164;-53
2022/06/06 02:39:32;;;;;;;43.10;26.42;;;;;;;;;;2083190;28;20644;-56
2022/06/06 02:40:33;;;;;;;52.17;28.90;;;;;;;;;;2083656;28;20167;-51
2022/06/06 02:41:33;;;;;;;47.80;30.88;;;;;;;;;;2083884;28;20557;-53
2022/06/06 02:42:33;;;;;;;38.97;25.10;;;;;;;;;;2083411;28;20767;-53
2022/06/06 02:43:39;;;;;;;50.53;28.10;;;;;;;;;;2084126;28;20259;-53
2022/06/06 02:44:39;;;;;;;53.55;31.45;;;;;;;;;;2082980;28;20179;-53
2022/06/06 02:45:40;;;;;;;45.78;30.77;;;;;;;;;;2083168;28;20180;-53
2022/06/06 02:46:40;;;;;;;50.53;29.70;;;;;;;;;;2083254;28;20259;-53
2022/06/06 02:47:40;;;;;;;48.83;30.50;;;;;;;;;;2083545;28;20164;-53
2022/06/06 02:48:40;;;;;;;46.72;27.88;;;;;;;;;;2083806;28;20168;-54
2022/06/06 02:49:41;;;;;;;47.13;27.15;;;;;;;;;;2083625;28;20179;-54
2022/06/06 02:50:42;;;;;;;45.83;28.30;;;;;;;;;;2083438;28;20256;-56
2022/06/06 02:51:43;;;;;;;52.28;29.92;;;;;;;;;;2083299;28;20659;-54
2022/06/06 02:52:43;;;;;;;54.33;33.47;;;;;;;;;;2083470;28;20192;-54
2022/06/06 02:53:43;;;;;;;56.22;33.90;;;;;;;;;;2083264;28;20184;-52
2022/06/06 02:54:44;;;;;;;50.53;29.95;;;;;;;;;;2082140;28;20164;-53
2022/06/06 02:55:45;;;;;;;48.03;28.95;;;;;;;;;;2082585;28;20188;-54
2022/06/06 02:56:45;;;;;;;51.38;29.13;;;;;;;;;;2083740;28;20228;-53
2022/06/06 02:57:46;;;;;;;42.03;25.92;;;;;;;;;;2083726;28;20187;-56
2022/06/06 02:58:47;;;;;;;49.85;29.15;;;;;;;;;;2084502;28;20633;-56
2022/06/06 02:59:49;;;;;;;45.30;27.20;;;;;;;;;;2076440;28;20185;-57
2022/06/06 03:00:53;;;;;;;46.95;28.30;;;;;;;;;;2076451;28;20177;-54
2022/06/06 03:01:54;;;;;;;39.47;25.98;;;;;;;;;;2084025;28;20191;-53
2022/06/06 03:02:54;;;;;;;40.70;25.65;;;;;;;;;;2083998;28;20723;-55
2022/06/06 03:03:54;;;;;;;42.15;25.23;;;;;;;;;;2084332;28;20183;-55
2022/06/06 03:04:55;;;;;;;40.85;22.52;;;;;;;;;;2084445;28;20222;-56
2022/06/06 03:06:04;;;;;;;37.72;22.52;;;;;;;;;;2085019;28;20199;-52
2022/06/06 03:07:22;;;;;;;49.53;28.42;;;;;;;;;;2083534;28;20165;-55
2022/06/06 03:08:22;;;;;;;44.63;28.23;;;;;;;;;;2083694;28;20157;-51
2022/06/06 03:09:36;;;;;;;41.63;26.02;;;;;;;;;;2083204;28;20172;-52
2022/06/06 03:10:40;;;;;;;49.00;25.48;;;;;;;;;;2083690;28;20166;-53
2022/06/06 03:11:43;;;;;;;49.10;27.35;;;;;;;;;;2083630;28;20165;-55
2022/06/06 03:13:02;;;;;;;48.40;29.50;;;;;;;;;;2083842;28;20184;-55
2022/06/06 03:14:21;;;;;;;39.00;23.80;;;;;;;;;;2082884;28;20207;-52
2022/06/06 03:15:29;;;;;;;46.03;26.23;;;;;;;;;;2079912;28;20177;-52
2022/06/06 03:20:48;;;;;;;45.75;28.13;;;;;;;;;;2074617;28;20153;-54
2022/06/06 03:22:07;;;;;;;45.10;27.45;;;;;;;;;;2074669;28;20662;-53
2022/06/06 03:23:10;;;;;;;45.60;25.98;;;;;;;;;;2073576;28;20239;-55
2022/06/06 03:24:27;;;;;;;42.50;25.50;;;;;;;;;;2072844;28;20238;-54
2022/06/06 03:25:32;;;;;;;37.85;24.20;;;;;;;;;;2075812;28;20541;-55
2022/06/06 03:26:33;;;;;;;35.35;21.05;;;;;;;;;;2076695;28;20811;-54
2022/06/06 03:27:39;;;;;;;30.75;19.83;;;;;;;;;;2076226;28;20180;-54
2022/06/06 03:28:45;;;;;;;33.72;21.42;;;;;;;;;;2076219;28;20161;-53
2022/06/06 03:30:12;;;;;;;30.55;19.80;;;;;;;;;;2079778;28;20175;-53
2022/06/06 03:31:21;;;;;;;28.13;19.90;;;;;;;;;;2068244;28;20198;-53
2022/06/06 03:32:40;;;;;;;28.02;18.33;;;;;;;;;;2083973;28;20254;-53
2022/06/06 03:33:46;;;;;;;28.33;19.45;;;;;;;;;;2084346;28;20183;-54
2022/06/06 03:34:57;;;;;;;27.55;18.77;;;;;;;;;;2082948;28;20164;-56
2022/06/06 03:36:10;;;;;;;28.17;18.40;;;;;;;;;;2082943;28;20214;-53
2022/06/06 03:37:10;;;;;;;27.30;18.27;;;;;;;;;;2082704;28;20268;-55
2022/06/06 03:38:19;;;;;;;25.50;18.35;;;;;;;;;;2082668;28;20156;-57
2022/06/06 03:39:23;;;;;;;26.85;18.85;;;;;;;;;;2082741;28;20183;-55
2022/06/06 03:40:32;;;;;;;26.25;17.95;;;;;;;;;;2090203;28;20251;-57
2022/06/06 03:41:41;;;;;;;27.92;19.30;;;;;;;;;;2089545;28;20184;-52
2022/06/06 03:42:48;;;;;;;25.83;18.60;;;;;;;;;;2081978;28;20792;-53
2022/06/06 03:43:54;;;;;;;24.85;17.45;;;;;;;;;;2082244;28;20152;-53
2022/06/06 03:45:02;;;;;;;25.60;17.45;;;;;;;;;;2082134;28;20180;-54
2022/06/06 03:46:10;;;;;;;24.77;17.50;;;;;;;;;;2082966;28;20170;-57
2022/06/06 03:47:29;;;;;;;27.67;17.63;;;;;;;;;;2082472;28;20594;-52
2022/06/06 03:48:39;;;;;;;22.17;17.30;;;;;;;;;;2082528;28;20227;-53
2022/06/06 03:50:05;;;;;;;23.77;16.23;;;;;;;;;;2082552;28;20176;-56
2022/06/06 03:51:17;;;;;;;22.63;15.98;;;;;;;;;;2080312;28;20223;-53
2022/06/06 03:52:20;;;;;;;25.90;17.83;;;;;;;;;;2077724;28;20249;-53
2022/06/06 03:53:39;;;;;;;23.80;15.15;;;;;;;;;;2082362;28;20313;-54
2022/06/06 03:54:39;;;;;;;25.75;16.30;;;;;;;;;;2073369;28;20256;-55
2022/06/06 03:56:06;;;;;;;25.98;16.83;;;;;;;;;;2073954;28;20232;-56
2022/06/06 03:57:14;;;;;;;25.85;15.85;;;;;;;;;;2071554;28;20185;-54
2022/06/06 03:58:16;;;;;;;21.55;15.27;;;;;;;;;;2074719;28;20826;-54
2022/06/06 03:59:19;;;;;;;22.35;16.63;;;;;;;;;;2081760;28;20164;-53
2022/06/06 04:00:20;;;;;;;26.38;16.92;;;;;;;;;;2082961;28;20198;-56
2022/06/06 04:01:21;;;;;;;23.83;15.77;;;;;;;;;;2083114;28;20183;-55
2022/06/06 04:02:24;;;;;;;24.52;16.70;;;;;;;;;;2083106;28;20190;-53
2022/06/06 04:03:26;;;;;;;25.50;16.02;;;;;;;;;;2082802;28;20652;-51
2022/06/06 04:04:28;;;;;;;22.20;16.58;;;;;;;;;;2081810;28;20184;-55
2022/06/06 04:05:29;;;;;;;23.40;16.30;;;;;;;;;;2082588;28;20643;-53
2022/06/06 04:06:30;;;;;;;22.80;15.20;;;;;;;;;;2082790;28;20268;-55
2022/06/06 04:07:32;;;;;;;19.60;14.48;;;;;;;;;;2082619;28;20221;-56
2022/06/06 04:08:32;;;;;;;21.33;14.75;;;;;;;;;;2082564;28;20175;-53
2022/06/06 04:09:33;;;;;;;24.65;15.48;;;;;;;;;;2082317;28;20180;-56
2022/06/06 04:10:52;;;;;;;21.75;14.82;;;;;;;;;;2081964;28;20618;-53
2022/06/06 04:11:59;;;;;;;18.38;14.20;;;;;;;;;;2082129;28;20216;-53
2022/06/06 04:13:00;;;;;;;22.50;14.95;;;;;;;;;;2082578;28;20203;-54
2022/06/06 04:14:03;;;;;;;23.80;16.45;;;;;;;;;;2081734;28;20254;-56
2022/06/06 04:15:15;;;;;;;19.65;14.25;;;;;;;;;;2082314;28;20226;-54
2022/06/06 04:16:24;;;;;;;24.33;14.50;;;;;;;;;;2082516;28;20590;-55
2022/06/06 04:17:37;;;;;;;22.40;15.27;;;;;;;;;;2082492;28;20191;-53
2022/06/06 04:18:41;;;;;;;22.42;14.10;;;;;;;;;;2082242;28;20747;-56
2022/06/06 04:20:06;;;;;;;21.75;15.45;;;;;;;;;;2082742;28;20176;-54
2022/06/06 04:21:19;;;;;;;21.63;14.73;;;;;;;;;;2082467;28;20552;-52
2022/06/06 04:22:37;;;;;;;20.17;15.70;;;;;;;;;;2081567;28;20226;-52
2022/06/06 04:23:44;;;;;;;19.30;14.95;;;;;;;;;;2081843;28;20250;-54
2022/06/06 04:24:47;;;;;;;22.08;15.77;;;;;;;;;;2081582;28;20165;-55
2022/06/06 04:26:03;;;;;;;21.55;14.63;;;;;;;;;;2082517;28;20629;-54
2022/06/06 04:27:03;;;;;;;22.95;15.65;;;;;;;;;;2081839;28;20706;-52
2022/06/06 04:28:22;;;;;;;21.10;15.85;;;;;;;;;;2082028;28;20236;-55
2022/06/06 04:29:41;;;;;;;22.98;16.75;;;;;;;;;;2082301;28;20488;-55
2022/06/06 04:30:44;;;;;;;20.23;15.32;;;;;;;;;;2082217;28;20275;-54
2022/06/06 04:31:58;;;;;;;25.65;16.15;;;;;;;;;;2082529;28;20176;-54
2022/06/06 04:33:30;;;;;;;23.38;16.52;;;;;;;;;;2082238;28;20204;-53
2022/06/06 04:34:44;;;;;;;21.90;15.15;;;;;;;;;;2048001;29;20214;-53
2022/06/06 04:35:48;;;;;;;20.85;14.73;;;;;;;;;;2072116;28;20649;-53
2022/06/06 04:37:06;;;;;;;19.80;14.85;;;;;;;;;;2081391;28;20161;-54
2022/06/06 04:38:09;;;;;;;21.33;15.40;;;;;;;;;;2082503;28;20192;-52
2022/06/06 04:39:10;;;;;;;20.52;14.85;;;;;;;;;;2081410;28;20164;-55
2022/06/06 04:40:20;;;;;;;20.58;14.98;;;;;;;;;;2081769;28;20193;-55
2022/06/06 04:41:23;;;;;;;19.92;15.35;;;;;;;;;;2082271;28;20176;-55
2022/06/06 04:42:49;;;;;;;23.73;15.70;;;;;;;;;;2082291;28;20179;-52
2022/06/06 04:44:12;;;;;;;20.45;15.27;;;;;;;;;;2058989;28;20224;-54
2022/06/06 04:45:29;;;;;;;21.63;14.93;;;;;;;;;;2081914;28;20164;-53
2022/06/06 04:46:41;;;;;;;20.10;14.70;;;;;;;;;;2081622;28;20172;-54
2022/06/06 04:47:41;;;;;;;23.00;15.10;;;;;;;;;;2081849;28;20167;-53
2022/06/06 04:48:43;;;;;;;21.60;15.40;;;;;;;;;;2082070;28;20191;-55
2022/06/06 04:49:44;;;;;;;19.27;15.55;;;;;;;;;;2081988;28;20172;-51
2022/06/06 04:50:44;;;;;;;23.05;14.93;;;;;;;;;;2073473;28;20177;-55
2022/06/06 04:51:45;;;;;;;21.00;14.90;;;;;;;;;;2073385;28;20256;-53
2022/06/06 04:52:50;;;;;;;22.45;16.60;;;;;;;;;;2082193;28;20261;-53
2022/06/06 04:53:52;;;;;;;20.50;15.00;;;;;;;;;;2081331;28;20604;-54
2022/06/06 04:54:53;;;;;;;20.27;15.32;;;;;;;;;;2081080;28;20171;-56
2022/06/06 04:55:55;;;;;;;21.77;15.40;;;;;;;;;;2081488;28;20173;-56
2022/06/06 04:56:58;;;;;;;23.15;16.13;;;;;;;;;;2065471;28;20181;-54
2022/06/06 04:58:00;;;;;;;20.20;15.65;;;;;;;;;;2073474;28;20208;-52
2022/06/06 04:59:01;;;;;;;20.95;15.15;;;;;;;;;;2082102;28;20164;-54
2022/06/06 05:00:03;;;;;;;20.23;15.02;;;;;;;;;;2081077;28;20326;-54
2022/06/06 05:01:04;;;;;;;19.17;14.18;;;;;;;;;;2081708;28;20551;-53
2022/06/06 05:02:05;;;;;;;22.70;14.85;;;;;;;;;;2081459;28;20311;-52
2022/06/06 05:03:05;;;;;;;21.38;15.23;;;;;;;;;;2081442;28;20279;-56
2022/06/06 05:04:06;;;;;;;21.35;14.63;;;;;;;;;;2081002;28;20168;-56
2022/06/06 05:05:06;;;;;;;17.27;13.85;;;;;;;;;;2081883;28;20173;-55
2022/06/06 05:06:19;;;;;;;20.40;14.32;;;;;;;;;;2081312;28;20184;-53
2022/06/06 05:07:22;;;;;;;17.98;12.65;;;;;;;;;;2081330;28;20169;-53
2022/06/06 05:08:35;;;;;;;17.83;13.65;;;;;;;;;;2082013;28;20259;-52
2022/06/06 05:09:41;;;;;;;18.50;13.45;;;;;;;;;;2081446;28;20200;-52
2022/06/06 05:11:05;;;;;;;17.40;14.07;;;;;;;;;;2081359;28;20164;-52
2022/06/06 05:12:15;;;;;;;19.13;14.63;;;;;;;;;;2071099;28;20191;-53
2022/06/06 05:13:39;;;;;;;19.25;13.30;;;;;;;;;;2074998;28;20239;-54
2022/06/06 05:14:47;;;;;;;18.05;13.05;;;;;;;;;;2080614;28;20716;-54
2022/06/06 05:15:47;;;;;;;16.70;13.60;;;;;;;;;;2082077;28;20156;-53
2022/06/06 05:16:50;;;;;;;18.98;13.48;;;;;;;;;;2081504;28;20310;-54
2022/06/06 05:18:09;;;;;;;20.38;13.18;;;;;;;;;;2081582;28;20195;-54
2022/06/06 05:19:28;;;;;;;17.13;13.38;;;;;;;;;;2081910;28;20180;-55
2022/06/06 05:20:35;;;;;;;16.05;13.10;;;;;;;;;;2081978;28;20164;-52
2022/06/06 05:21:50;;;;;;;17.52;13.57;;;;;;;;;;2081787;28;20253;-52
2022/06/06 05:22:50;;;;;;;18.88;14.57;;;;;;;;;;2073779;28;20212;-52
2022/06/06 05:24:11;;;;;;;15.10;11.32;;;;;;;;;;2073802;28;20176;-55
2022/06/06 05:25:14;;;;;;;20.00;13.98;;;;;;;;;;2073783;28;20168;-54
2022/06/06 05:26:33;;;;;;;19.05;13.18;;;;;;;;;;2073894;28;20574;-53
2022/06/06 05:27:54;;;;;;;17.50;13.43;;;;;;;;;;2080902;28;20215;-56
2022/06/06 05:29:12;;;;;;;18.90;13.00;;;;;;;;;;2081039;28;20155;-60
2022/06/06 05:30:31;;;;;;;16.83;11.80;;;;;;;;;;2081564;28;20203;-55
2022/06/06 05:31:50;;;;;;;15.98;11.98;;;;;;;;;;2081746;28;20247;-53
2022/06/06 05:32:53;;;;;;;15.63;11.63;;;;;;;;;;2082080;28;20257;-54
2022/06/06 05:33:54;;;;;;;14.77;11.95;;;;;;;;;;2078221;28;20184;-53
2022/06/06 05:35:01;;;;;;;15.90;12.30;;;;;;;;;;2080814;28;20186;-55
2022/06/06 05:36:04;;;;;;;15.75;11.73;;;;;;;;;;2081232;28;20573;-53
2022/06/06 05:37:04;;;;;;;16.38;11.70;;;;;;;;;;2081785;28;20687;-55
2022/06/06 05:38:07;;;;;;;17.20;13.25;;;;;;;;;;2081907;28;20160;-57
2022/06/06 05:39:14;;;;;;;17.58;13.20;;;;;;;;;;2081624;28;20180;-53
2022/06/06 05:40:14;;;;;;;18.42;13.45;;;;;;;;;;2081819;28;20172;-53
2022/06/06 05:41:21;;;;;;;16.67;13.02;;;;;;;;;;2081889;28;20164;-56
2022/06/06 05:42:31;;;;;;;17.40;14.15;;;;;;;;;;2081182;28;20215;-54
2022/06/06 05:43:49;;;;;;;17.85;13.45;;;;;;;;;;2081161;28;20283;-55
2022/06/06 05:45:08;;;;;;;18.77;13.95;;;;;;;;;;2079399;28;20188;-54
2022/06/06 05:46:17;;;;;;;19.85;15.00;;;;;;;;;;2081622;28;20172;-54
2022/06/06 05:47:17;;;;;;;21.77;14.80;;;;;;;;;;2081725;28;20176;-53
2022/06/06 05:48:33;;;;;;;23.88;15.50;;;;;;;;;;2081550;28;20172;-52
2022/06/06 05:49:36;;;;;;;22.05;15.25;;;;;;;;;;2081362;28;20237;-56
2022/06/06 05:50:36;;;;;;;22.92;15.13;;;;;;;;;;2081704;28;20251;-53
2022/06/06 05:51:36;;;;;;;22.83;15.68;;;;;;;;;;2081579;28;20177;-52
2022/06/06 05:52:37;;;;;;;23.42;16.55;;;;;;;;;;2081739;28;20378;-54
2022/06/06 05:53:56;;;;;;;24.92;15.70;;;;;;;;;;2081520;28;20172;-56
2022/06/06 05:54:56;;;;;;;23.00;16.48;;;;;;;;;;2080645;28;20771;-52
2022/06/06 05:56:05;;;;;;;23.67;17.17;;;;;;;;;;2081186;28;20177;-52
2022/06/06 05:57:24;;;;;;;24.92;18.15;;;;;;;;;;2081911;28;20250;-52
2022/06/06 05:58:43;;;;;;;23.15;16.80;;;;;;;;;;2081688;28;20186;-53
2022/06/06 06:00:02;;;;;;;24.35;17.40;;;;;;;;;;2081298;28;20203;-53
2022/06/06 06:01:31;;;;;;;23.58;17.50;;;;;;;;;;2081966;28;20754;-56
2022/06/06 06:02:43;;;;;;;23.48;18.13;;;;;;;;;;2081489;28;20217;-54
2022/06/06 06:03:54;;;;;;;24.50;18.42;;;;;;;;;;2081615;28;20169;-56
2022/06/06 06:05:14;;;;;;;25.38;18.35;;;;;;;;;;2081165;28;20232;-55
2022/06/06 06:06:15;;;;;;;24.33;18.80;;;;;;;;;;2081681;28;20247;-55
2022/06/06 06:07:30;;;;;;;24.10;18.23;;;;;;;;;;2081753;28;20175;-53
2022/06/06 06:08:36;;;;;;;23.95;18.52;;;;;;;;;;2081756;28;20163;-53
2022/06/06 06:09:39;;;;;;;26.30;19.35;;;;;;;;;;2081577;28;20275;-54
2022/06/06 06:10:46;;;;;;;26.58;19.55;;;;;;;;;;2081774;28;20190;-53
2022/06/06 06:11:46;;;;;;;25.08;18.55;;;;;;;;;;2081073;28;20179;-56
2022/06/06 06:13:22;;;;;;;28.55;19.67;;;;;;;;;;2080624;28;20262;-55
2022/06/06 06:14:23;;;;;;;28.48;19.98;;;;;;;;;;2046868;29;20183;-53
2022/06/06 06:15:32;;;;;;;25.33;19.88;;;;;;;;;;2048318;29;20179;-54
2022/06/06 06:16:34;;;;;;;26.83;19.35;;;;;;;;;;2054115;28;20159;-54
2022/06/06 06:17:35;;;;;;;27.67;19.75;;;;;;;;;;2073389;28;20565;-54
2022/06/06 06:18:51;;;;;;;25.38;18.30;;;;;;;;;;2073544;28;20248;-53
2022/06/06 06:20:08;;;;;;;28.02;20.38;;;;;;;;;;2072652;28;20176;-52
2022/06/06 06:21:09;;;;;;;31.02;20.02;;;;;;;;;;2076251;28;20183;-50
2022/06/06 06:22:10;;;;;;;27.15;20.50;;;;;;;;;;2081695;28;20215;-53
2022/06/06 06:23:13;;;;;;;27.95;20.40;;;;;;;;;;2081534;28;20242;-52
2022/06/06 06:24:24;;;;;;;33.72;21.58;;;;;;;;;;2080562;28;20697;-51
2022/06/06 06:25:25;;;;;;;30.02;20.70;;;;;;;;;;2081412;28;20541;-52
2022/06/06 06:26:28;;;;;;;31.10;22.45;;;;;;;;;;2081714;28;20160;-54
2022/06/06 06:27:31;;;;;;;30.90;20.65;;;;;;;;;;2080735;28;20645;-54
2022/06/06 06:28:36;;;;;;;32.03;22.23;;;;;;;;;;2081150;28;20176;-52
2022/06/06 06:29:36;;;;;;;30.65;22.38;;;;;;;;;;2081461;28;20180;-55